Estes Park, Colorado
Current Conditions -  °F | °C
As of 10:53 PM on Sunday 19 Oct 2014 (Local Time) from KLMO Reporting Station
Clear Clear  
Wind Chill: 44°   Ceiling: Unl
Heat Index: 46°   Visibility: 10mi
Dew Point: 37°   Wind: 5mph
Humidity: 68%   Direction: 230°SW
Pressure: 30.18"   Gusts: NA
Location:  40.37°N, 105.52°W
Report Text: KLMO 200453Z AUTO 23004KT 10SM CLR 08/03 A3018 RMK AO2 T00800025
Loading
Personal Weather Stations






























Interactive Weather Map
Tropical Storm Tracking
New forecast layout! Learn more

10-Day Weather Forecast

Advertisements
Track Severe Weather on mobile